createdAt,value
2019-03-15T00:02:28.573Z,1.07
2019-03-15T00:04:59.428Z,1.33
2019-03-15T00:07:30.596Z,1.10
2019-03-15T00:10:01.481Z,1.23
2019-03-15T00:12:32.390Z,1.23
2019-03-15T00:15:03.347Z,2.27
2019-03-15T00:17:34.182Z,1.33
2019-03-15T00:20:05.431Z,2.10
2019-03-15T00:22:36.551Z,1.03
2019-03-15T00:25:08.101Z,1.97
2019-03-15T00:27:39.302Z,1.30
2019-03-15T00:30:10.975Z,1.90
2019-03-15T00:32:42.001Z,1.93
2019-03-15T00:35:13.146Z,2.10
2019-03-15T00:37:44.257Z,1.75
2019-03-15T00:40:15.235Z,1.40
2019-03-15T00:42:46.128Z,1.10
2019-03-15T00:45:16.964Z,1.37
2019-03-15T00:47:47.827Z,1.30
2019-03-15T00:50:18.974Z,1.53
2019-03-15T00:52:49.867Z,1.83
2019-03-15T00:55:21.036Z,2.17
2019-03-15T00:57:52.223Z,1.90
2019-03-15T01:00:23.593Z,1.60
2019-03-15T01:02:54.641Z,1.90
2019-03-15T01:05:25.562Z,2.03
2019-03-15T01:07:56.662Z,1.40
2019-03-15T01:10:27.762Z,2.03
2019-03-15T01:12:58.859Z,1.50
2019-03-15T01:15:29.768Z,1.63
2019-03-15T01:18:00.638Z,1.47
2019-03-15T01:20:31.558Z,1.47
2019-03-15T01:23:02.685Z,1.80
2019-03-15T01:25:33.643Z,1.43
2019-03-15T01:28:04.790Z,1.30
2019-03-15T01:30:35.896Z,1.27
2019-03-15T01:33:07.624Z,1.83
2019-03-15T01:35:38.534Z,2.00
2019-03-15T01:38:09.996Z,1.40
2019-03-15T01:40:41.948Z,1.67
2019-03-15T01:43:13.665Z,1.27
2019-03-15T01:45:44.889Z,1.80
2019-03-15T01:48:16.939Z,1.93
2019-03-15T01:50:48.124Z,1.72
2019-03-15T01:53:19.049Z,1.73
2019-03-15T01:55:50.442Z,2.27
2019-03-15T01:58:21.528Z,1.83
2019-03-15T02:00:52.733Z,1.80
2019-03-15T02:03:23.817Z,1.70
2019-03-15T02:05:56.797Z,2.20
2019-03-15T02:08:27.879Z,1.83
2019-03-15T02:10:59.152Z,2.60
2019-03-15T02:13:30.564Z,2.43
2019-03-15T02:16:02.002Z,1.97
2019-03-15T02:18:32.864Z,1.87
2019-03-15T02:21:04.601Z,1.90
2019-03-15T02:23:38.194Z,1.47
2019-03-15T02:26:09.053Z,1.73
2019-03-15T02:28:40.462Z,1.80
2019-03-15T02:31:12.678Z,2.08
2019-03-15T02:33:43.849Z,1.47
2019-03-15T02:36:18.240Z,1.60
2019-03-15T02:38:52.526Z,1.52
2019-03-15T02:41:27.914Z,1.82
2019-03-15T02:43:58.798Z,1.57
2019-03-15T02:46:30.461Z,1.97
2019-03-15T02:49:01.838Z,2.20
2019-03-15T02:51:32.688Z,2.40
2019-03-15T02:54:03.567Z,1.97
2019-03-15T02:56:34.784Z,1.90
2019-03-15T02:59:05.663Z,1.47
2019-03-15T03:01:38.822Z,1.70
2019-03-15T03:04:10.008Z,1.90
2019-03-15T03:06:41.095Z,1.70
2019-03-15T03:09:13.095Z,2.12
2019-03-15T03:11:44.367Z,2.23
2019-03-15T03:14:15.354Z,2.43
2019-03-15T03:16:46.553Z,2.80
2019-03-15T03:19:17.904Z,2.30
2019-03-15T03:21:48.833Z,2.12
2019-03-15T03:24:19.702Z,2.13
2019-03-15T03:26:51.251Z,1.90
2019-03-15T03:29:22.631Z,1.67
2019-03-15T03:31:53.550Z,2.08
2019-03-15T03:34:24.734Z,2.00
2019-03-15T03:36:57.807Z,2.60
2019-03-15T03:39:28.194Z,2.67
2019-03-15T03:41:59.437Z,2.55
2019-03-15T03:44:33.091Z,4.13
2019-03-15T03:47:03.955Z,2.67
2019-03-15T03:49:35.087Z,3.33
2019-03-15T03:52:07.268Z,2.37
2019-03-15T03:54:38.132Z,2.23
2019-03-15T03:57:10.467Z,2.50
2019-03-15T03:59:41.818Z,2.30
2019-03-15T04:02:13.639Z,2.40
2019-03-15T04:04:45.052Z,2.17
2019-03-15T04:07:15.977Z,2.03
2019-03-15T04:09:47.270Z,2.33
2019-03-15T04:12:18.027Z,2.40
2019-03-15T04:14:48.944Z,2.40
2019-03-15T04:17:20.078Z,1.80
2019-03-15T04:19:51.619Z,2.40
2019-03-15T04:22:23.155Z,3.13
2019-03-15T04:24:53.993Z,2.50
2019-03-15T04:27:24.852Z,2.77
2019-03-15T04:29:55.753Z,2.53
2019-03-15T04:32:26.832Z,2.22
2019-03-15T04:34:57.672Z,3.00
2019-03-15T04:37:28.776Z,3.30
2019-03-15T04:39:59.626Z,2.67
2019-03-15T04:42:31.031Z,2.37
2019-03-15T04:45:01.853Z,2.40
2019-03-15T04:47:33.296Z,3.13
2019-03-15T04:50:04.377Z,2.60
2019-03-15T04:52:35.451Z,2.87
2019-03-15T04:55:06.350Z,3.40
2019-03-15T04:57:37.218Z,4.20
2019-03-15T05:00:10.724Z,2.73
2019-03-15T05:02:42.585Z,3.37
2019-03-15T05:05:17.441Z,3.03
2019-03-15T05:07:51.457Z,2.93
2019-03-15T05:10:22.656Z,2.43
2019-03-15T05:12:53.826Z,2.83
2019-03-15T05:15:24.997Z,2.40
2019-03-15T05:17:55.832Z,3.25
2019-03-15T05:20:28.293Z,3.17
2019-03-15T05:22:59.713Z,3.02
2019-03-15T05:25:30.823Z,2.77
2019-03-15T05:28:01.668Z,2.90
2019-03-15T05:30:32.543Z,3.70
2019-03-15T05:33:03.424Z,2.90
2019-03-15T05:35:34.474Z,3.10
2019-03-15T05:38:05.465Z,3.07
2019-03-15T05:40:36.306Z,3.50
2019-03-15T05:43:07.263Z,2.93
2019-03-15T05:45:38.607Z,2.77
2019-03-15T05:48:09.550Z,2.77
2019-03-15T05:50:40.993Z,2.77
2019-03-15T05:53:12.142Z,2.27
2019-03-15T05:55:43.118Z,2.80
2019-03-15T05:58:14.663Z,2.90
2019-03-15T06:00:46.054Z,3.97
2019-03-15T06:03:16.964Z,2.90
2019-03-15T06:05:47.937Z,3.30
2019-03-15T06:08:18.857Z,3.60
2019-03-15T06:10:50.021Z,3.63
2019-03-15T06:13:20.903Z,2.43
2019-03-15T06:15:52.205Z,2.87
2019-03-15T06:18:23.146Z,3.17
2019-03-15T06:20:53.991Z,3.07
2019-03-15T06:23:25.212Z,3.50
2019-03-15T06:25:56.217Z,2.83
2019-03-15T06:28:27.353Z,3.70
2019-03-15T06:30:58.249Z,4.03
2019-03-15T06:33:29.133Z,2.97
2019-03-15T06:36:00.732Z,3.80
2019-03-15T06:38:33.508Z,3.80
2019-03-15T06:41:04.886Z,3.93
2019-03-15T06:43:35.765Z,3.93
2019-03-15T06:46:06.757Z,2.63
2019-03-15T06:48:37.692Z,3.57
2019-03-15T06:51:09.372Z,3.80
2019-03-15T06:53:40.493Z,4.07
2019-03-15T06:56:11.980Z,3.43
2019-03-15T06:58:42.981Z,3.23
2019-03-15T07:01:13.863Z,3.50
2019-03-15T07:03:46.627Z,3.15
2019-03-15T07:06:18.146Z,3.50
2019-03-15T07:08:48.996Z,3.23
2019-03-15T07:11:19.915Z,3.15
2019-03-15T07:13:51.134Z,3.13
2019-03-15T07:16:22.672Z,3.62
2019-03-15T07:18:53.503Z,3.40
2019-03-15T07:21:24.509Z,4.37
2019-03-15T07:23:57.779Z,3.35
2019-03-15T07:26:28.009Z,3.80
2019-03-15T07:28:58.944Z,3.70
2019-03-15T07:31:29.821Z,3.42
2019-03-15T07:34:00.980Z,3.80
2019-03-15T07:36:31.879Z,3.85
2019-03-15T07:39:03.530Z,3.63
2019-03-15T07:41:34.478Z,3.47
2019-03-15T07:44:05.511Z,3.73
2019-03-15T07:46:36.449Z,3.50
2019-03-15T07:49:10.572Z,3.00
2019-03-15T07:51:41.706Z,4.07
2019-03-15T07:54:12.592Z,4.37
2019-03-15T07:56:43.754Z,3.03
2019-03-15T07:59:14.662Z,4.20
2019-03-15T08:01:46.130Z,3.10
2019-03-15T08:04:17.918Z,3.23
2019-03-15T08:06:48.804Z,3.73
2019-03-15T08:09:19.933Z,3.43
2019-03-15T08:11:50.931Z,3.30
2019-03-15T08:14:22.103Z,3.13
2019-03-15T08:16:55.838Z,3.27
2019-03-15T08:19:27.290Z,3.08
2019-03-15T08:21:58.170Z,3.20
2019-03-15T08:24:29.230Z,2.80
2019-03-15T08:27:00.388Z,3.40
2019-03-15T08:29:31.882Z,2.83
2019-03-15T08:32:02.788Z,2.70
2019-03-15T08:34:33.911Z,2.87
2019-03-15T08:37:04.863Z,2.65
2019-03-15T08:39:36.139Z,3.13
2019-03-15T08:42:07.231Z,2.97
2019-03-15T08:44:38.119Z,3.13
2019-03-15T08:47:08.988Z,3.20
2019-03-15T08:49:40.458Z,2.77
2019-03-15T08:52:12.858Z,3.00
2019-03-15T08:54:46.465Z,2.17
2019-03-15T08:57:16.706Z,3.20
2019-03-15T08:59:54.158Z,3.58
2019-03-15T09:02:20.815Z,4.23
2019-03-15T09:04:51.700Z,3.50
2019-03-15T09:07:22.886Z,4.50
2019-03-15T09:09:54.160Z,4.58
2019-03-15T09:12:25.240Z,4.17
2019-03-15T09:14:56.192Z,4.20
2019-03-15T09:17:27.349Z,4.13
2019-03-15T09:19:58.271Z,4.30
2019-03-15T09:22:29.469Z,4.15
2019-03-15T09:25:00.426Z,4.10
2019-03-15T09:27:31.338Z,5.23
2019-03-15T09:30:02.605Z,4.67
2019-03-15T09:32:33.474Z,5.17
2019-03-15T09:35:04.523Z,3.90
2019-03-15T09:37:35.385Z,4.08
2019-03-15T09:40:06.932Z,4.40
2019-03-15T09:42:37.772Z,4.50
2019-03-15T09:45:09.795Z,4.70
2019-03-15T09:47:41.129Z,4.63
2019-03-15T09:50:21.916Z,4.33
2019-03-15T09:52:44.821Z,4.60
2019-03-15T09:55:15.815Z,3.77
2019-03-15T09:57:46.730Z,4.00
2019-03-15T10:00:17.654Z,4.03
2019-03-15T10:02:48.621Z,5.27
2019-03-15T10:05:20.053Z,4.08
2019-03-15T10:07:51.006Z,16.47
2019-03-15T10:10:21.875Z,4.63
2019-03-15T10:13:05.160Z,4.15
2019-03-15T10:15:26.638Z,4.17
2019-03-15T10:17:57.855Z,4.25
2019-03-15T10:20:28.733Z,4.25
2019-03-15T10:23:05.998Z,4.33
2019-03-15T10:25:45.694Z,4.13
2019-03-15T10:28:04.831Z,4.30
2019-03-15T10:30:35.735Z,4.00
2019-03-15T10:33:06.717Z,3.33
2019-03-15T10:35:37.652Z,3.47
2019-03-15T10:38:08.881Z,2.53
2019-03-15T10:40:41.910Z,3.73
2019-03-15T10:43:12.790Z,3.03
2019-03-15T10:45:44.104Z,3.00
2019-03-15T10:48:24.948Z,3.83
2019-03-15T10:50:48.023Z,3.43
2019-03-15T10:53:18.889Z,2.93
2019-03-15T10:56:00.169Z,3.13
2019-03-15T10:58:23.176Z,3.60
2019-03-15T11:00:54.016Z,3.13
2019-03-15T11:03:24.856Z,2.83
2019-03-15T11:05:56.017Z,2.87
2019-03-15T11:08:27.172Z,2.52
2019-03-15T11:10:58.351Z,3.50
2019-03-15T11:13:29.571Z,2.65
2019-03-15T11:16:00.769Z,2.87
2019-03-15T11:18:31.606Z,2.50
2019-03-15T11:21:02.441Z,2.95
2019-03-15T11:23:33.305Z,3.07
2019-03-15T11:26:13.543Z,2.73
2019-03-15T11:28:37.144Z,2.42
2019-03-15T11:31:08.286Z,2.73
2019-03-15T11:33:39.533Z,1.92
2019-03-15T11:36:10.581Z,3.43
2019-03-15T11:38:41.436Z,2.57
2019-03-15T11:41:12.658Z,2.52
2019-03-15T11:43:43.943Z,2.93
2019-03-15T11:46:16.508Z,2.43
2019-03-15T11:48:48.768Z,2.13
2019-03-15T11:51:19.891Z,2.63
2019-03-15T11:53:51.605Z,1.90
2019-03-15T11:56:27.245Z,2.72
2019-03-15T11:58:55.312Z,1.90
2019-03-15T12:01:26.151Z,2.43
2019-03-15T12:03:57.098Z,1.98
2019-03-15T12:06:27.979Z,2.30
2019-03-15T12:08:58.818Z,2.08
2019-03-15T12:11:29.668Z,1.77
2019-03-15T12:14:00.628Z,2.17
2019-03-15T12:16:32.016Z,1.57
2019-03-15T12:19:04.015Z,1.67
2019-03-15T12:21:35.149Z,1.45
2019-03-15T12:24:06.217Z,1.40
2019-03-15T12:26:40.478Z,1.12
2019-03-15T12:29:09.843Z,1.23
2019-03-15T12:31:40.722Z,0.60
2019-03-15T12:34:12.507Z,1.10
2019-03-15T12:36:43.350Z,0.90
2019-03-15T12:39:15.159Z,0.60
2019-03-15T12:41:47.096Z,0.60
2019-03-15T12:44:18.756Z,1.10
2019-03-15T12:46:49.867Z,0.83
2019-03-15T12:49:20.950Z,0.40
2019-03-15T12:51:52.781Z,0.60
2019-03-15T12:54:23.668Z,0.72
2019-03-15T12:56:54.493Z,0.40
2019-03-15T12:59:26.293Z,0.60
2019-03-15T13:01:57.852Z,0.57
2019-03-15T13:04:28.717Z,0.50
2019-03-15T13:06:59.944Z,0.47
2019-03-15T13:09:30.999Z,0.53
2019-03-15T13:12:01.843Z,0.72
2019-03-15T13:14:33.376Z,0.60
2019-03-15T13:17:05.208Z,0.70
2019-03-15T13:19:39.585Z,0.43
2019-03-15T13:22:10.407Z,0.70
2019-03-15T13:24:41.260Z,0.40
2019-03-15T13:27:12.101Z,0.50
2019-03-15T13:29:43.612Z,0.50
2019-03-15T13:32:14.572Z,0.47
2019-03-15T13:34:45.725Z,0.40
2019-03-15T13:37:17.363Z,0.30
2019-03-15T13:39:48.212Z,0.43
2019-03-15T13:42:19.394Z,0.40
2019-03-15T13:44:50.232Z,0.30
2019-03-15T13:47:21.058Z,0.40
2019-03-15T13:49:51.888Z,0.50
2019-03-15T13:52:24.072Z,0.42
2019-03-15T13:54:55.968Z,0.47
2019-03-15T13:57:32.510Z,0.70
2019-03-15T14:00:03.283Z,0.70
2019-03-15T14:02:35.462Z,0.53
2019-03-15T14:05:06.428Z,0.60
2019-03-15T14:07:37.677Z,0.70
2019-03-15T14:10:09.121Z,1.07
2019-03-15T14:12:40.960Z,0.87
2019-03-15T14:15:12.028Z,1.20
2019-03-15T14:17:42.906Z,0.80
2019-03-15T14:20:24.138Z,1.30
2019-03-15T14:22:55.079Z,1.00
2019-03-15T14:25:25.979Z,1.13
2019-03-15T14:27:57.373Z,1.13
2019-03-15T14:30:31.996Z,1.00
2019-03-15T14:33:02.883Z,0.70
2019-03-15T14:35:34.032Z,1.05
2019-03-15T14:38:04.922Z,0.93
2019-03-15T14:40:36.567Z,0.90
2019-03-15T14:43:07.621Z,0.80
2019-03-15T14:45:38.484Z,1.03
2019-03-15T14:48:09.385Z,1.10
2019-03-15T14:50:45.561Z,0.90
2019-03-15T14:53:16.846Z,0.60
2019-03-15T14:55:48.667Z,1.00
2019-03-15T14:58:22.377Z,0.97
2019-03-15T15:00:53.666Z,0.70
2019-03-15T15:03:25.628Z,0.67
2019-03-15T15:05:56.949Z,0.70
2019-03-15T15:08:28.103Z,0.68
2019-03-15T15:10:58.967Z,0.50
2019-03-15T15:13:32.901Z,0.83
2019-03-15T15:16:03.774Z,0.93
2019-03-15T15:18:34.649Z,0.50
2019-03-15T15:21:06.145Z,0.80
2019-03-15T15:23:39.595Z,0.60
2019-03-15T15:26:12.683Z,0.73
2019-03-15T15:28:43.552Z,0.50
2019-03-15T15:31:14.463Z,0.50
2019-03-15T15:33:45.309Z,1.00
2019-03-15T15:36:16.389Z,0.50
2019-03-15T15:38:47.332Z,0.50
2019-03-15T15:41:18.619Z,0.43
2019-03-15T15:43:49.684Z,0.57
2019-03-15T15:46:20.528Z,0.73
2019-03-15T15:48:51.371Z,0.47
2019-03-15T15:51:22.247Z,0.80
2019-03-15T15:53:53.120Z,0.80
2019-03-15T15:56:24.078Z,0.75
2019-03-15T15:58:55.926Z,0.83
2019-03-15T16:01:27.365Z,0.70
2019-03-15T16:03:59.489Z,0.70
2019-03-15T16:06:30.408Z,0.80
2019-03-15T16:09:01.322Z,0.90
2019-03-15T16:11:32.764Z,1.40
2019-03-15T16:14:04.628Z,0.75
2019-03-15T16:16:35.504Z,0.60
2019-03-15T16:19:06.547Z,0.80
2019-03-15T16:21:37.516Z,1.10
2019-03-15T16:24:08.479Z,1.20
2019-03-15T16:26:39.333Z,1.10
2019-03-15T16:29:10.771Z,0.90
2019-03-15T16:31:42.838Z,1.13
2019-03-15T16:34:13.876Z,0.80
2019-03-15T16:36:45.115Z,0.80
2019-03-15T16:39:16.271Z,1.32
2019-03-15T16:41:47.143Z,1.00
2019-03-15T16:44:18.137Z,0.80
2019-03-15T16:46:52.238Z,1.13
2019-03-15T16:49:23.203Z,1.00
2019-03-15T16:51:54.317Z,0.97
2019-03-15T16:54:25.564Z,0.60
2019-03-15T16:56:57.053Z,1.00
2019-03-15T16:59:28.125Z,0.80
2019-03-15T17:01:59.234Z,0.70
2019-03-15T17:04:30.451Z,0.88
2019-03-15T17:07:01.571Z,0.70
2019-03-15T17:09:35.530Z,0.40
2019-03-15T17:12:06.679Z,0.50
2019-03-15T17:14:37.673Z,0.53
2019-03-15T17:17:09.257Z,0.87
2019-03-15T17:19:40.137Z,0.62
2019-03-15T17:22:11.066Z,0.90
2019-03-15T17:24:41.896Z,0.62
2019-03-15T17:27:13.127Z,0.77
2019-03-15T17:29:44.505Z,0.97
2019-03-15T17:32:15.481Z,0.57
2019-03-15T17:34:46.485Z,0.50
2019-03-15T17:37:17.762Z,1.00
2019-03-15T17:39:49.121Z,0.80
2019-03-15T17:42:21.500Z,1.20
2019-03-15T17:45:12.021Z,0.80
2019-03-15T17:47:55.256Z,1.27
2019-03-15T17:50:26.166Z,0.60
2019-03-15T17:52:56.939Z,1.07
2019-03-15T17:55:29.792Z,0.82
2019-03-15T17:58:00.758Z,0.67
2019-03-15T18:00:38.915Z,0.83
2019-03-15T18:03:20.564Z,0.90
2019-03-15T18:05:43.107Z,0.80
2019-03-15T18:08:14.422Z,0.78
2019-03-15T18:10:45.887Z,0.50
2019-03-15T18:13:16.719Z,0.72
2019-03-15T18:15:47.934Z,0.60
2019-03-15T18:18:18.779Z,0.63
2019-03-15T18:20:49.622Z,0.80
2019-03-15T18:23:20.436Z,0.70
2019-03-15T18:25:51.525Z,0.60
2019-03-15T18:28:22.369Z,0.70
2019-03-15T18:30:54.224Z,0.90
2019-03-15T18:33:27.100Z,0.60
2019-03-15T18:35:58.057Z,0.77
2019-03-15T18:38:30.825Z,0.70
2019-03-15T18:41:01.784Z,0.57
2019-03-15T18:43:32.728Z,0.70
2019-03-15T18:46:03.625Z,0.37
2019-03-15T18:48:34.806Z,0.60
2019-03-15T18:51:05.956Z,0.65
2019-03-15T18:53:37.756Z,1.20
2019-03-15T18:56:08.603Z,0.50
2019-03-15T18:58:39.913Z,0.60
2019-03-15T19:01:11.025Z,0.62
2019-03-15T19:03:41.965Z,0.87
2019-03-15T19:06:13.069Z,0.55
2019-03-15T19:08:43.928Z,0.88
2019-03-15T19:11:14.813Z,0.90
2019-03-15T19:13:46.082Z,1.37
2019-03-15T19:16:20.357Z,0.57
2019-03-15T19:18:49.645Z,0.83
2019-03-15T19:21:20.496Z,0.63
2019-03-15T19:23:51.377Z,1.00
2019-03-15T19:26:22.838Z,0.87
2019-03-15T19:28:54.019Z,0.40
2019-03-15T19:31:25.124Z,0.90
2019-03-15T19:33:56.198Z,1.00
2019-03-15T19:36:27.074Z,1.00
2019-03-15T19:38:58.072Z,0.68
2019-03-15T19:41:29.513Z,0.73
2019-03-15T19:44:00.886Z,0.80
2019-03-15T19:46:34.823Z,0.90
2019-03-15T19:49:05.742Z,1.60
2019-03-15T19:51:37.259Z,1.07
2019-03-15T19:54:08.200Z,1.40
2019-03-15T19:56:39.044Z,0.70
2019-03-15T19:59:11.782Z,1.00
2019-03-15T20:01:42.602Z,0.67
2019-03-15T20:04:13.750Z,0.85
2019-03-15T20:06:44.854Z,1.20
2019-03-15T20:09:15.793Z,1.17
2019-03-15T20:11:46.638Z,1.73
2019-03-15T20:14:17.517Z,1.10
2019-03-15T20:16:48.406Z,1.37
2019-03-15T20:19:19.529Z,0.93
2019-03-15T20:21:50.391Z,1.00
2019-03-15T20:24:21.261Z,0.80
2019-03-15T20:26:52.453Z,0.93
2019-03-15T20:29:23.813Z,1.13
2019-03-15T20:31:54.742Z,1.00
2019-03-15T20:34:25.774Z,0.90
2019-03-15T20:36:56.612Z,1.23
2019-03-15T20:39:27.629Z,0.80
2019-03-15T20:41:58.519Z,1.20
2019-03-15T20:44:33.092Z,0.90
2019-03-15T20:47:04.065Z,1.07
2019-03-15T20:49:36.573Z,1.00
2019-03-15T20:52:07.789Z,0.80
2019-03-15T20:54:38.964Z,0.72
2019-03-15T20:57:09.840Z,1.47
2019-03-15T20:59:41.011Z,0.97
2019-03-15T21:02:11.978Z,0.87
2019-03-15T21:04:43.400Z,1.42
2019-03-15T21:07:14.350Z,0.80
2019-03-15T21:09:45.444Z,0.83
2019-03-15T21:12:16.547Z,1.07
2019-03-15T21:14:47.445Z,0.90
2019-03-15T21:17:18.408Z,0.90
2019-03-15T21:19:50.505Z,1.23
2019-03-15T21:22:21.622Z,0.90
2019-03-15T21:24:52.810Z,1.00
2019-03-15T21:27:23.922Z,0.83
2019-03-15T21:29:55.365Z,1.43
2019-03-15T21:32:26.366Z,1.00
2019-03-15T21:34:57.343Z,1.30
2019-03-15T21:37:29.771Z,1.00
2019-03-15T21:40:01.232Z,1.33
2019-03-15T21:42:32.819Z,1.05
2019-03-15T21:45:03.949Z,0.80
2019-03-15T21:47:34.821Z,1.00
2019-03-15T21:50:06.881Z,1.07
2019-03-15T21:52:37.999Z,1.10
2019-03-15T21:55:08.826Z,1.00
2019-03-15T21:57:39.694Z,0.80
2019-03-15T22:00:12.644Z,1.25
2019-03-15T22:02:43.633Z,1.40
2019-03-15T22:05:14.538Z,2.10
2019-03-15T22:07:45.350Z,1.00
2019-03-15T22:10:16.318Z,1.05
2019-03-15T22:12:47.276Z,1.77
2019-03-15T22:15:18.203Z,1.27
2019-03-15T22:17:50.343Z,1.20
2019-03-15T22:20:21.619Z,0.80
2019-03-15T22:22:52.853Z,1.37
2019-03-15T22:25:24.655Z,1.43
2019-03-15T22:27:56.220Z,0.93
2019-03-15T22:30:27.576Z,0.73
2019-03-15T22:32:58.539Z,0.90
2019-03-15T22:35:30.043Z,1.17
2019-03-15T22:38:01.027Z,1.53
2019-03-15T22:40:34.368Z,1.67
2019-03-15T22:43:05.773Z,2.00
2019-03-15T22:45:36.768Z,1.30
2019-03-15T22:48:07.752Z,1.37
2019-03-15T22:50:40.361Z,1.90
2019-03-15T22:53:11.406Z,1.22
2019-03-15T22:55:42.543Z,1.67
2019-03-15T22:58:13.471Z,1.60
2019-03-15T23:00:45.421Z,1.43
2019-03-15T23:03:16.734Z,1.20
2019-03-15T23:05:48.120Z,2.47
2019-03-15T23:08:19.001Z,1.30
2019-03-15T23:10:49.878Z,1.70
2019-03-15T23:13:20.944Z,2.05
2019-03-15T23:15:53.186Z,1.60
2019-03-15T23:18:24.051Z,1.20
2019-03-15T23:20:55.469Z,1.63
2019-03-15T23:23:26.411Z,1.43
2019-03-15T23:25:57.907Z,1.73
2019-03-15T23:28:29.675Z,1.23
2019-03-15T23:31:00.598Z,1.10
2019-03-15T23:33:31.446Z,1.07
2019-03-15T23:36:02.829Z,1.67
2019-03-15T23:38:33.707Z,1.87
2019-03-15T23:41:08.819Z,1.17
2019-03-15T23:43:40.114Z,1.43
2019-03-15T23:46:11.737Z,1.50
2019-03-15T23:48:42.793Z,1.07
2019-03-15T23:51:13.702Z,2.03
2019-03-15T23:53:44.540Z,2.03
2019-03-15T23:56:15.393Z,1.40
2019-03-15T23:58:46.871Z,1.17
